Wawasan Ruby — 3EVU7 — position and weather

sailwx.info

Track history (hours):
 
Tides and Currents Weather Stations Pressure Air Temp Water Temp Dewpoint Dewpoint Depression Visibility Wind Speed Wind Dir Waves Ship Positions

Wawasan Ruby

Last reported at 2015-Aug-01 00:29 UTC. Time now 2015-Aug-31 04:50 UTC.
Position N 03°26' E 100°28'.
Warning: this ship's position is 30 days out of date.

Length 146 m; draft 9.9 m.

Type: Tanker. MMSI: 355619000.

Date/timePositionNaut miles runAvg speedWind from/ knotsBaromVisibWave heightAir tempDewpointWater temp
2015-Aug-01 00:29N 03°26' E 100°28'2613.4
2015-Jul-31 22:33N 03°06' E 100°45'2311.7
2015-Jul-31 20:33N 02°50' E 101°01'2713.7
2015-Jul-31 18:33N 02°38' E 101°26'3014.9
2015-Jul-31 16:33N 02°19' E 101°49'12812.8
2015-Jul-31 06:33N 01°12' E 103°38'2 0.1
2015-Jul-30 14:32N 01°13' E 103°38'5 4.2
2015-Jul-30 13:28N 01°10' E 103°41'6 6.9
2015-Jul-30 12:33N 01°10' E 103°48'1111.2
2015-Jul-30 11:33N 01°15' E 103°58'10 9.8
2015-Jul-30 10:33N 01°17' E 104°07'  
Track history (hours):
 
Tides and Currents Weather Stations Pressure Air Temp Water Temp Dewpoint Dewpoint Depression Visibility Wind Speed Wind Dir Waves Ship Positions

Wawasan Ruby

Last reported at 2015-Aug-01 00:29 UTC. Time now 2015-Aug-31 04:50 UTC.
Position N 03°26' E 100°28'.
Warning: this ship's position is 30 days out of date.

Length 146 m; draft 9.9 m.

Type: Tanker. MMSI: 355619000.

Date/timePositionNaut miles runAvg speedWind from/ knotsBaromVisibWave heightAir tempDewpointWater temp
2015-Aug-01 00:29N 03°26' E 100°28'2613.4
2015-Jul-31 22:33N 03°06' E 100°45'2311.7
2015-Jul-31 20:33N 02°50' E 101°01'2713.7
2015-Jul-31 18:33N 02°38' E 101°26'3014.9
2015-Jul-31 16:33N 02°19' E 101°49'12812.8
2015-Jul-31 06:33N 01°12' E 103°38'2 0.1
2015-Jul-30 14:32N 01°13' E 103°38'5 4.2
2015-Jul-30 13:28N 01°10' E 103°41'6 6.9
2015-Jul-30 12:33N 01°10' E 103°48'1111.2
2015-Jul-30 11:33N 01°15' E 103°58'10 9.8
2015-Jul-30 10:33N 01°17' E 104°07'  

Dump ship's entire track history